Bei Facebook empfehlenBei Twitter postenGoogle plusPinterest

Das Wetter im Erzgebirge am 21.08.2017

Wetter und Klima am 21.08.2017 Holzhau im Erzgebirge (630m ü.NN)
Letzte gemessene Temperatur und Uhrzeit der Messung23:45:00 Uhr5.50 °C
Temperatur (Maximum / Höchstwert) und Uhrzeit der Messung16:00:00 Uhr19.50 °C
Temperatur (Minimum / Tiefstwert) und Uhrzeit der Messung23:45:005.50 °C
Errechneter Absolutwert der Temperaturschwankungen zwischen Tmin und Tmax des Tages14.00 K
Errechnete Tagesmitteltemperatur11.83125 °C
Gesamt - Niederschlag des Tages (in flüssiger Form)0.00 Liter / m²
Luftdruck (Maximum / Höchstwert) und Zeitpunkt der Messung22:15:00 Uhr1019.00 hPa
Luftdruck (Minimum / Tiefstwert) und Zeitpunkt der Messung05:30:00 Uhr1017.70 hPa
Errechneter Absolutwert der Luftdruckschwankungen des Tages1.30 hPa
Höchste gemessene Windgeschwindigkeit und Uhrzeit der Messung12:30:00 Uhr25.92 km/h
Errechnete Windhäufigkeit in Relation zu den Messwerten des Tages13.54167 %
Niedrigste Windkühle (Windchill) und Zeitpunkt der Messung23:45:00 Uhr5.50 °C
Taupunkt (Maximum / Höchstwert) und Uhrzeit der Messung11:30:00 Uhr10.80 °C
Taupunkt (Minimum / Tiefstwert) und Uhrzeit der Messung23:45:003.70 °C
Anzahl der automatisch eingelesenen Messwerte 96

Detaillierte Wetter- und Klima- Messwerte für den 21.08.2017 in Holzhau im Erzgebirge (630m ü.NN)
ZeitTemperaturLuftdruckRel. LuftfeuchteWindWindrichtungWindchillTaupunktNiederschlag l/m²
23:45:005.50 °C1018.80 hPa88.00 %3.70 °C 
23:30:005.80 °C1018.70 hPa87.00 %3.80 °C 
23:15:006.10 °C1018.80 hPa87.00 %4.10 °C 
23:00:006.40 °C1018.80 hPa87.00 %4.40 °C 
22:45:006.60 °C1018.80 hPa86.00 %4.40 °C 
22:30:006.90 °C1018.90 hPa85.00 %4.60 °C 
22:15:007.20 °C1019.00 hPa85.00 %4.90 °C 
22:00:007.50 °C1018.90 hPa85.00 %5.10 °C 
21:45:007.80 °C1018.60 hPa84.00 %5.30 °C 
21:30:007.80 °C1018.60 hPa82.00 %4.90 °C 
21:15:008.10 °C1018.60 hPa80.00 %4.90 °C 
21:00:008.80 °C1018.40 hPa79.00 %5.40 °C 
20:45:009.50 °C1018.30 hPa77.00 %5.70 °C 
20:30:0010.40 °C1018.00 hPa76.00 %6.40 °C 
20:15:0011.50 °C1018.00 hPa73.00 %6.80 °C 
20:00:0012.40 °C1018.10 hPa70.00 %7.10 °C 
19:45:0013.10 °C1018.00 hPa69.00 %7.50 °C 
19:30:0013.60 °C1017.90 hPa68.00 %7.80 °C 
19:15:0014.30 °C1017.90 hPa67.00 %8.30 °C 
19:00:0014.80 °C1017.80 hPa65.00 %8.30 °C 
18:45:0015.30 °C1017.80 hPa64.00 %8.50 °C 
18:30:0015.80 °C1017.90 hPa62.00 %8.50 °C 
18:15:0016.30 °C1017.90 hPa60.00 %8.50 °C 
18:00:0016.60 °C1018.00 hPa60.00 %8.80 °C 
17:45:0017.30 °C1018.10 hPa57.00 %10.44 km/hWNW17.30 °C8.70 °C 
17:30:0017.80 °C1017.90 hPa58.00 %7.92 km/hWSW17.80 °C9.40 °C 
17:15:0017.50 °C1017.90 hPa58.00 %9.20 °C 
17:00:0017.80 °C1017.90 hPa57.00 %9.20 °C 
16:45:0017.60 °C1017.80 hPa56.00 %8.70 °C 
16:30:0018.30 °C1017.80 hPa57.00 %9.60 °C 
16:15:0019.20 °C1018.00 hPa56.00 %10.20 °C 
16:00:0019.50 °C1017.90 hPa56.00 %7.92 km/hWNW19.50 °C10.50 °C 
15:45:0018.90 °C1018.00 hPa57.00 %19.44 km/hNW19.80 °C10.20 °C 
15:30:0018.40 °C1017.90 hPa59.00 %6.48 km/hN18.40 °C10.30 °C 
15:15:0018.60 °C1018.00 hPa58.00 %14.40 km/hWSW18.60 °C10.20 °C 
15:00:0017.80 °C1018.20 hPa59.00 %9.70 °C 
14:45:0018.30 °C1018.30 hPa58.00 %9.90 °C 
14:30:0018.30 °C1018.40 hPa58.00 %9.90 °C 
14:15:0018.40 °C1018.40 hPa54.00 %8.90 °C 
14:00:0018.50 °C1018.50 hPa54.00 %9.00 °C 
13:45:0018.30 °C1018.40 hPa56.00 %19.44 km/hWNW19.10 °C9.40 °C 
13:30:0017.60 °C1018.60 hPa61.00 %16.92 km/hNNW17.60 °C10.00 °C 
13:15:0017.40 °C1018.80 hPa63.00 %5.04 km/hW17.40 °C10.30 °C 
13:00:0017.10 °C1018.80 hPa61.00 %9.50 °C 
12:45:0017.60 °C1018.80 hPa60.00 %9.00 km/hWNW17.60 °C9.80 °C 
12:30:0017.20 °C1018.80 hPa64.00 %25.92 km/hWNW17.60 °C10.30 °C 
12:15:0017.20 °C1018.70 hPa61.00 %9.60 °C 
12:00:0017.50 °C1018.70 hPa63.00 %3.96 km/hS17.50 °C10.40 °C 
11:45:0017.20 °C1018.70 hPa64.00 %10.30 °C 
11:30:0016.30 °C1018.70 hPa70.00 %10.80 °C 
11:15:0014.60 °C1018.60 hPa72.00 %15.48 km/hNW14.60 °C9.60 °C 
11:00:0015.30 °C1018.80 hPa71.00 %10.10 °C 
10:45:0014.30 °C1018.80 hPa77.00 %10.30 °C 
10:30:0013.90 °C1018.80 hPa77.00 %9.90 °C 
10:15:0014.10 °C1018.50 hPa79.00 %10.50 °C 
10:00:0013.40 °C1018.60 hPa82.00 %10.40 °C 
09:45:0013.20 °C1018.60 hPa82.00 %10.20 °C 
09:30:0012.90 °C1018.60 hPa85.00 %10.40 °C 
09:15:0012.40 °C1018.70 hPa87.00 %10.30 °C 
09:00:0012.00 °C1018.60 hPa88.00 %10.10 °C 
08:45:0011.70 °C1018.60 hPa89.00 %9.90 °C 
08:30:0011.40 °C1018.70 hPa91.00 %10.00 °C 
08:15:0011.10 °C1018.60 hPa93.00 %10.00 °C 
08:00:0010.60 °C1018.60 hPa94.00 %9.70 °C 
07:45:0010.10 °C1018.50 hPa94.00 %9.20 °C 
07:30:009.80 °C1018.40 hPa94.00 %8.90 °C 
07:15:009.60 °C1018.20 hPa94.00 %8.70 °C 
07:00:009.40 °C1018.20 hPa94.00 %8.50 °C 
06:45:009.30 °C1018.00 hPa94.00 %8.40 °C 
06:30:009.10 °C1018.10 hPa94.00 %8.20 °C 
06:15:009.10 °C1018.00 hPa94.00 %8.20 °C 
06:00:009.10 °C1017.80 hPa94.00 %8.20 °C 
05:45:008.90 °C1017.80 hPa94.00 %8.00 °C 
05:30:008.70 °C1017.70 hPa94.00 %7.80 °C 
05:15:008.60 °C1017.80 hPa94.00 %7.70 °C 
05:00:008.20 °C1017.80 hPa94.00 %7.30 °C 
04:45:007.90 °C1017.80 hPa93.00 %6.80 °C 
04:30:007.80 °C1018.00 hPa93.00 %6.70 °C 
04:15:007.60 °C1017.90 hPa93.00 %6.50 °C 
04:00:007.40 °C1018.00 hPa93.00 %6.30 °C 
03:45:007.20 °C1018.00 hPa93.00 %6.10 °C 
03:30:006.70 °C1017.90 hPa93.00 %5.70 °C 
03:15:005.90 °C1017.90 hPa92.00 %4.70 °C 
03:00:005.60 °C1017.90 hPa92.00 %4.40 °C 
02:45:005.50 °C1018.10 hPa91.00 %4.20 °C 
02:30:005.60 °C1018.20 hPa91.00 %4.20 °C 
02:15:005.50 °C1018.20 hPa91.00 %4.20 °C 
02:00:005.60 °C1018.00 hPa91.00 %4.20 °C 
01:45:005.90 °C1017.90 hPa90.00 %4.40 °C 
01:30:006.30 °C1018.10 hPa90.00 %4.80 °C 
01:15:006.60 °C1018.30 hPa91.00 %5.20 °C 
01:00:006.70 °C1018.50 hPa90.00 %5.20 °C 
00:45:006.60 °C1018.40 hPa90.00 %5.10 °C 
00:30:006.90 °C1018.30 hPa90.00 %5.40 °C 
00:15:006.90 °C1018.40 hPa90.00 %5.40 °C 
00:00:007.10 °C1018.70 hPa90.00 %5.60 °C 

Permanenter Link zu dieser Seite: Wetter im Erzgebirge am 21.08.2017
Performance-Info: Die Erstellung der Seite / Statistik(en) / Tabelle(n) erforderte 5 Datenbankserver-Abfrage(n) und dauerte 122 Millisekunden. (Dieser Messwert ist von der Gesamt-Auslastung des Servers abhängig.)
Erzgebirge - Wetter | Erzgebirge - Wetter (Mobilgeräte) | Komplette Klimadatenbank